sensor_id;sensor_type;location;lat;lon;timestamp;temperature;humidity
60701;DHT22;46541;49.894;10.886;2023-04-23T00:02:00;16.30;99.90
60701;DHT22;46541;49.894;10.886;2023-04-23T00:04:30;16.20;99.90
60701;DHT22;46541;49.894;10.886;2023-04-23T00:06:59;16.20;99.90
60701;DHT22;46541;49.894;10.886;2023-04-23T00:09:29;16.20;99.90
60701;DHT22;46541;49.894;10.886;2023-04-23T00:11:58;16.10;99.90
60701;DHT22;46541;49.894;10.886;2023-04-23T00:14:25;16.10;99.90
60701;DHT22;46541;49.894;10.886;2023-04-23T00:16:52;16.10;99.90
60701;DHT22;46541;49.894;10.886;2023-04-23T00:19:19;16.10;99.90
60701;DHT22;46541;49.894;10.886;2023-04-23T00:21:46;16.00;99.90
60701;DHT22;46541;49.894;10.886;2023-04-23T00:24:13;16.00;99.90
60701;DHT22;46541;49.894;10.886;2023-04-23T00:26:39;16.00;99.90
60701;DHT22;46541;49.894;10.886;2023-04-23T00:29:06;16.00;99.90
60701;DHT22;46541;49.894;10.886;2023-04-23T00:31:33;15.90;99.90
60701;DHT22;46541;49.894;10.886;2023-04-23T00:33:59;15.90;99.90
60701;DHT22;46541;49.894;10.886;2023-04-23T00:36:26;15.90;99.90
60701;DHT22;46541;49.894;10.886;2023-04-23T00:38:53;15.80;99.90
60701;DHT22;46541;49.894;10.886;2023-04-23T00:41:20;15.90;99.90
60701;DHT22;46541;49.894;10.886;2023-04-23T00:43:47;15.80;99.90
60701;DHT22;46541;49.894;10.886;2023-04-23T00:46:15;15.80;99.90
60701;DHT22;46541;49.894;10.886;2023-04-23T00:48:44;15.80;99.90
60701;DHT22;46541;49.894;10.886;2023-04-23T00:51:11;15.80;99.90
60701;DHT22;46541;49.894;10.886;2023-04-23T00:53:38;15.70;99.90
60701;DHT22;46541;49.894;10.886;2023-04-23T00:56:05;15.70;99.90
60701;DHT22;46541;49.894;10.886;2023-04-23T00:58:32;15.60;99.90
60701;DHT22;46541;49.894;10.886;2023-04-23T01:00:59;15.60;99.90
60701;DHT22;46541;49.894;10.886;2023-04-23T01:03:30;15.60;99.90
60701;DHT22;46541;49.894;10.886;2023-04-23T01:05:57;15.50;99.90
60701;DHT22;46541;49.894;10.886;2023-04-23T01:08:24;15.50;99.90
60701;DHT22;46541;49.894;10.886;2023-04-23T01:10:52;15.50;99.90
60701;DHT22;46541;49.894;10.886;2023-04-23T01:13:20;15.50;99.90
60701;DHT22;46541;49.894;10.886;2023-04-23T01:15:47;15.50;99.90
60701;DHT22;46541;49.894;10.886;2023-04-23T01:18:15;15.40;99.90
60701;DHT22;46541;49.894;10.886;2023-04-23T01:20:41;15.50;99.90
60701;DHT22;46541;49.894;10.886;2023-04-23T01:23:09;15.40;99.90
60701;DHT22;46541;49.894;10.886;2023-04-23T01:25:36;15.40;99.90
60701;DHT22;46541;49.894;10.886;2023-04-23T01:28:04;15.40;99.90
60701;DHT22;46541;49.894;10.886;2023-04-23T01:30:32;15.40;99.90
60701;DHT22;46541;49.894;10.886;2023-04-23T01:32:59;15.40;99.90
60701;DHT22;46541;49.894;10.886;2023-04-23T01:35:27;15.40;99.90
60701;DHT22;46541;49.894;10.886;2023-04-23T01:37:54;15.40;99.90
60701;DHT22;46541;49.894;10.886;2023-04-23T01:40:21;15.40;99.90
60701;DHT22;46541;49.894;10.886;2023-04-23T01:42:48;15.40;99.90
60701;DHT22;46541;49.894;10.886;2023-04-23T01:45:15;15.40;99.90
60701;DHT22;46541;49.894;10.886;2023-04-23T01:47:45;15.40;99.90
60701;DHT22;46541;49.894;10.886;2023-04-23T01:50:13;15.30;99.90
60701;DHT22;46541;49.894;10.886;2023-04-23T01:52:40;15.30;99.90
60701;DHT22;46541;49.894;10.886;2023-04-23T01:55:08;15.30;99.90
60701;DHT22;46541;49.894;10.886;2023-04-23T01:57:35;15.30;99.90
60701;DHT22;46541;49.894;10.886;2023-04-23T02:00:06;15.30;99.90
60701;DHT22;46541;49.894;10.886;2023-04-23T02:02:34;15.30;99.90
60701;DHT22;46541;49.894;10.886;2023-04-23T02:05:02;15.20;99.90
60701;DHT22;46541;49.894;10.886;2023-04-23T02:07:33;15.10;99.90
60701;DHT22;46541;49.894;10.886;2023-04-23T02:10:01;15.10;99.90
60701;DHT22;46541;49.894;10.886;2023-04-23T02:12:27;15.10;99.90
60701;DHT22;46541;49.894;10.886;2023-04-23T02:14:54;15.10;99.90
60701;DHT22;46541;49.894;10.886;2023-04-23T02:17:21;15.00;99.90
60701;DHT22;46541;49.894;10.886;2023-04-23T02:19:51;15.00;99.90
60701;DHT22;46541;49.894;10.886;2023-04-23T02:22:17;15.00;99.90
60701;DHT22;46541;49.894;10.886;2023-04-23T02:24:44;15.00;99.90
60701;DHT22;46541;49.894;10.886;2023-04-23T02:27:12;15.00;99.90
60701;DHT22;46541;49.894;10.886;2023-04-23T02:29:39;15.00;99.90
60701;DHT22;46541;49.894;10.886;2023-04-23T02:32:07;15.00;99.90
60701;DHT22;46541;49.894;10.886;2023-04-23T02:34:34;15.10;99.90
60701;DHT22;46541;49.894;10.886;2023-04-23T02:37:01;15.00;99.90
60701;DHT22;46541;49.894;10.886;2023-04-23T02:39:30;14.90;99.90
60701;DHT22;46541;49.894;10.886;2023-04-23T02:41:57;15.00;99.90
60701;DHT22;46541;49.894;10.886;2023-04-23T02:44:24;15.00;99.90
60701;DHT22;46541;49.894;10.886;2023-04-23T02:46:51;15.00;99.90
60701;DHT22;46541;49.894;10.886;2023-04-23T02:49:18;15.00;99.90
60701;DHT22;46541;49.894;10.886;2023-04-23T02:51:45;15.00;99.90
60701;DHT22;46541;49.894;10.886;2023-04-23T02:54:12;15.00;99.90
60701;DHT22;46541;49.894;10.886;2023-04-23T02:56:39;15.00;99.90
60701;DHT22;46541;49.894;10.886;2023-04-23T02:59:06;15.00;99.90
60701;DHT22;46541;49.894;10.886;2023-04-23T03:01:33;15.00;99.90
60701;DHT22;46541;49.894;10.886;2023-04-23T03:04:00;15.00;99.90
60701;DHT22;46541;49.894;10.886;2023-04-23T03:06:28;14.90;99.90
60701;DHT22;46541;49.894;10.886;2023-04-23T03:08:54;14.90;99.90
60701;DHT22;46541;49.894;10.886;2023-04-23T03:11:21;14.90;99.90
60701;DHT22;46541;49.894;10.886;2023-04-23T03:13:48;14.90;99.90
60701;DHT22;46541;49.894;10.886;2023-04-23T03:16:15;14.80;99.90
60701;DHT22;46541;49.894;10.886;2023-04-23T03:18:42;14.80;99.90
60701;DHT22;46541;49.894;10.886;2023-04-23T03:21:09;14.80;99.90
60701;DHT22;46541;49.894;10.886;2023-04-23T03:23:36;14.70;99.90
60701;DHT22;46541;49.894;10.886;2023-04-23T03:26:02;14.70;99.90
60701;DHT22;46541;49.894;10.886;2023-04-23T03:28:30;14.70;99.90
60701;DHT22;46541;49.894;10.886;2023-04-23T03:30:56;14.70;99.90
60701;DHT22;46541;49.894;10.886;2023-04-23T03:33:23;14.70;99.90
60701;DHT22;46541;49.894;10.886;2023-04-23T03:35:50;14.70;99.90
60701;DHT22;46541;49.894;10.886;2023-04-23T03:38:17;14.70;99.90
60701;DHT22;46541;49.894;10.886;2023-04-23T03:40:44;14.60;99.90
60701;DHT22;46541;49.894;10.886;2023-04-23T03:43:10;14.60;99.90
60701;DHT22;46541;49.894;10.886;2023-04-23T03:45:37;14.60;99.90
60701;DHT22;46541;49.894;10.886;2023-04-23T03:48:04;14.50;99.90
60701;DHT22;46541;49.894;10.886;2023-04-23T03:50:30;14.50;99.90
60701;DHT22;46541;49.894;10.886;2023-04-23T03:53:00;14.50;99.90
60701;DHT22;46541;49.894;10.886;2023-04-23T03:55:26;14.50;99.90
60701;DHT22;46541;49.894;10.886;2023-04-23T03:57:53;14.50;99.90
60701;DHT22;46541;49.894;10.886;2023-04-23T04:00:20;14.50;99.90
60701;DHT22;46541;49.894;10.886;2023-04-23T04:02:47;14.40;99.90
60701;DHT22;46541;49.894;10.886;2023-04-23T04:05:13;14.40;99.90
60701;DHT22;46541;49.894;10.886;2023-04-23T04:07:40;14.40;99.90
60701;DHT22;46541;49.894;10.886;2023-04-23T04:10:08;14.30;99.90
60701;DHT22;46541;49.894;10.886;2023-04-23T04:12:34;14.40;99.90
60701;DHT22;46541;49.894;10.886;2023-04-23T04:15:03;14.40;99.90
60701;DHT22;46541;49.894;10.886;2023-04-23T04:17:30;14.40;99.90
60701;DHT22;46541;49.894;10.886;2023-04-23T04:19:56;14.40;99.90
60701;DHT22;46541;49.894;10.886;2023-04-23T04:22:23;14.40;99.90
60701;DHT22;46541;49.894;10.886;2023-04-23T04:24:50;14.50;99.90
60701;DHT22;46541;49.894;10.886;2023-04-23T04:27:18;14.40;99.90
60701;DHT22;46541;49.894;10.886;2023-04-23T04:29:44;14.40;99.90
60701;DHT22;46541;49.894;10.886;2023-04-23T04:32:11;14.40;99.90
60701;DHT22;46541;49.894;10.886;2023-04-23T04:34:39;14.30;99.90
60701;DHT22;46541;49.894;10.886;2023-04-23T04:37:06;14.20;99.90
60701;DHT22;46541;49.894;10.886;2023-04-23T04:39:33;14.20;99.90
60701;DHT22;46541;49.894;10.886;2023-04-23T04:41:59;14.10;99.90
60701;DHT22;46541;49.894;10.886;2023-04-23T04:44:28;14.10;99.90
60701;DHT22;46541;49.894;10.886;2023-04-23T04:46:56;14.10;99.90
60701;DHT22;46541;49.894;10.886;2023-04-23T04:49:23;14.20;99.90
60701;DHT22;46541;49.894;10.886;2023-04-23T04:51:49;14.20;99.90
60701;DHT22;46541;49.894;10.886;2023-04-23T04:54:16;14.20;99.90
60701;DHT22;46541;49.894;10.886;2023-04-23T04:56:43;14.20;99.90
60701;DHT22;46541;49.894;10.886;2023-04-23T04:59:10;14.30;99.90
60701;DHT22;46541;49.894;10.886;2023-04-23T05:01:37;14.30;99.90
60701;DHT22;46541;49.894;10.886;2023-04-23T05:04:04;14.40;99.90
60701;DHT22;46541;49.894;10.886;2023-04-23T05:06:31;14.40;99.90
60701;DHT22;46541;49.894;10.886;2023-04-23T05:08:58;14.30;99.90
60701;DHT22;46541;49.894;10.886;2023-04-23T05:11:25;14.40;99.90
60701;DHT22;46541;49.894;10.886;2023-04-23T05:13:51;14.40;99.90
60701;DHT22;46541;49.894;10.886;2023-04-23T05:16:18;14.50;99.90
60701;DHT22;46541;49.894;10.886;2023-04-23T05:18:45;14.40;99.90
60701;DHT22;46541;49.894;10.886;2023-04-23T05:21:12;14.40;99.90
60701;DHT22;46541;49.894;10.886;2023-04-23T05:23:39;14.40;99.90
60701;DHT22;46541;49.894;10.886;2023-04-23T05:26:06;14.50;99.90
60701;DHT22;46541;49.894;10.886;2023-04-23T05:28:33;14.50;99.90
60701;DHT22;46541;49.894;10.886;2023-04-23T05:30:59;14.60;99.90
60701;DHT22;46541;49.894;10.886;2023-04-23T05:33:26;14.60;99.90
60701;DHT22;46541;49.894;10.886;2023-04-23T05:36:01;14.60;99.90
60701;DHT22;46541;49.894;10.886;2023-04-23T05:38:28;14.60;99.90
60701;DHT22;46541;49.894;10.886;2023-04-23T05:40:55;14.70;99.90
60701;DHT22;46541;49.894;10.886;2023-04-23T05:43:22;14.70;99.90
60701;DHT22;46541;49.894;10.886;2023-04-23T05:45:48;14.70;99.90
60701;DHT22;46541;49.894;10.886;2023-04-23T05:48:15;14.70;99.90
60701;DHT22;46541;49.894;10.886;2023-04-23T05:50:42;14.60;99.90
60701;DHT22;46541;49.894;10.886;2023-04-23T05:53:08;14.60;99.90
60701;DHT22;46541;49.894;10.886;2023-04-23T05:55:35;14.60;99.90
60701;DHT22;46541;49.894;10.886;2023-04-23T05:58:02;14.70;99.90
60701;DHT22;46541;49.894;10.886;2023-04-23T06:00:28;14.70;99.90
60701;DHT22;46541;49.894;10.886;2023-04-23T06:02:55;14.70;99.90
60701;DHT22;46541;49.894;10.886;2023-04-23T06:05:22;14.80;99.90
60701;DHT22;46541;49.894;10.886;2023-04-23T06:07:49;14.70;99.90
60701;DHT22;46541;49.894;10.886;2023-04-23T06:10:16;14.70;99.90
60701;DHT22;46541;49.894;10.886;2023-04-23T06:12:42;14.60;99.90
60701;DHT22;46541;49.894;10.886;2023-04-23T06:15:09;14.60;99.90
60701;DHT22;46541;49.894;10.886;2023-04-23T06:17:37;14.60;99.90
60701;DHT22;46541;49.894;10.886;2023-04-23T06:20:04;14.60;99.90
60701;DHT22;46541;49.894;10.886;2023-04-23T06:22:31;14.60;99.90
60701;DHT22;46541;49.894;10.886;2023-04-23T06:24:58;14.50;99.90
60701;DHT22;46541;49.894;10.886;2023-04-23T06:27:25;14.50;99.90
60701;DHT22;46541;49.894;10.886;2023-04-23T06:29:52;14.60;99.90
60701;DHT22;46541;49.894;10.886;2023-04-23T06:32:19;14.60;99.90
60701;DHT22;46541;49.894;10.886;2023-04-23T06:34:46;14.60;99.90
60701;DHT22;46541;49.894;10.886;2023-04-23T06:37:26;14.70;99.90
60701;DHT22;46541;49.894;10.886;2023-04-23T06:39:55;14.70;99.90
60701;DHT22;46541;49.894;10.886;2023-04-23T06:42:22;14.70;99.90
60701;DHT22;46541;49.894;10.886;2023-04-23T06:44:49;14.70;99.90
60701;DHT22;46541;49.894;10.886;2023-04-23T06:47:18;14.70;99.90
60701;DHT22;46541;49.894;10.886;2023-04-23T06:49:45;14.80;99.90
60701;DHT22;46541;49.894;10.886;2023-04-23T06:52:12;14.90;99.90
60701;DHT22;46541;49.894;10.886;2023-04-23T06:54:38;15.00;99.90
60701;DHT22;46541;49.894;10.886;2023-04-23T06:57:06;15.00;99.90
60701;DHT22;46541;49.894;10.886;2023-04-23T06:59:32;15.10;99.90
60701;DHT22;46541;49.894;10.886;2023-04-23T07:01:59;15.20;99.90
60701;DHT22;46541;49.894;10.886;2023-04-23T07:04:26;15.30;99.90
60701;DHT22;46541;49.894;10.886;2023-04-23T07:06:53;15.40;99.90
60701;DHT22;46541;49.894;10.886;2023-04-23T07:09:20;15.30;99.90
60701;DHT22;46541;49.894;10.886;2023-04-23T07:11:47;15.30;99.90
60701;DHT22;46541;49.894;10.886;2023-04-23T07:14:14;15.30;99.90
60701;DHT22;46541;49.894;10.886;2023-04-23T07:16:40;15.40;99.90
60701;DHT22;46541;49.894;10.886;2023-04-23T07:19:07;15.40;99.90
60701;DHT22;46541;49.894;10.886;2023-04-23T07:21:34;15.30;99.90
60701;DHT22;46541;49.894;10.886;2023-04-23T07:24:01;15.30;99.90
60701;DHT22;46541;49.894;10.886;2023-04-23T07:26:34;15.20;99.90
60701;DHT22;46541;49.894;10.886;2023-04-23T07:29:03;15.20;99.90
60701;DHT22;46541;49.894;10.886;2023-04-23T07:31:29;15.30;99.90
60701;DHT22;46541;49.894;10.886;2023-04-23T07:33:56;15.40;99.90
60701;DHT22;46541;49.894;10.886;2023-04-23T07:36:23;15.40;99.90
60701;DHT22;46541;49.894;10.886;2023-04-23T07:38:50;15.60;99.90
60701;DHT22;46541;49.894;10.886;2023-04-23T07:41:17;15.70;99.90
60701;DHT22;46541;49.894;10.886;2023-04-23T07:43:44;15.90;99.90
60701;DHT22;46541;49.894;10.886;2023-04-23T07:46:10;16.10;99.90
60701;DHT22;46541;49.894;10.886;2023-04-23T07:48:37;16.20;99.90
60701;DHT22;46541;49.894;10.886;2023-04-23T07:51:04;16.30;99.90
60701;DHT22;46541;49.894;10.886;2023-04-23T07:53:32;16.30;99.90
60701;DHT22;46541;49.894;10.886;2023-04-23T07:55:59;16.30;99.90
60701;DHT22;46541;49.894;10.886;2023-04-23T07:58:26;16.40;99.90
60701;DHT22;46541;49.894;10.886;2023-04-23T08:00:53;16.50;99.90
60701;DHT22;46541;49.894;10.886;2023-04-23T08:03:19;16.60;99.90
60701;DHT22;46541;49.894;10.886;2023-04-23T08:05:48;16.40;99.90
60701;DHT22;46541;49.894;10.886;2023-04-23T08:08:15;16.30;99.90
60701;DHT22;46541;49.894;10.886;2023-04-23T08:10:42;16.30;99.90
60701;DHT22;46541;49.894;10.886;2023-04-23T08:13:09;16.40;99.90
60701;DHT22;46541;49.894;10.886;2023-04-23T08:15:36;16.60;99.90
60701;DHT22;46541;49.894;10.886;2023-04-23T08:18:03;16.80;99.90
60701;DHT22;46541;49.894;10.886;2023-04-23T08:20:30;16.80;99.90
60701;DHT22;46541;49.894;10.886;2023-04-23T08:23:00;17.10;99.90
60701;DHT22;46541;49.894;10.886;2023-04-23T08:25:27;17.30;99.90
60701;DHT22;46541;49.894;10.886;2023-04-23T08:27:53;17.50;99.90
60701;DHT22;46541;49.894;10.886;2023-04-23T08:30:20;17.40;99.90
60701;DHT22;46541;49.894;10.886;2023-04-23T08:32:49;17.60;99.90
60701;DHT22;46541;49.894;10.886;2023-04-23T08:35:17;18.00;99.90
60701;DHT22;46541;49.894;10.886;2023-04-23T08:37:43;18.30;99.90
60701;DHT22;46541;49.894;10.886;2023-04-23T08:40:11;18.10;99.90
60701;DHT22;46541;49.894;10.886;2023-04-23T08:42:42;18.30;99.90
60701;DHT22;46541;49.894;10.886;2023-04-23T08:45:10;18.70;99.90
60701;DHT22;46541;49.894;10.886;2023-04-23T08:47:39;18.90;99.90
60701;DHT22;46541;49.894;10.886;2023-04-23T08:50:16;19.00;99.90
60701;DHT22;46541;49.894;10.886;2023-04-23T08:52:49;18.70;99.90
60701;DHT22;46541;49.894;10.886;2023-04-23T08:55:18;18.60;99.90
60701;DHT22;46541;49.894;10.886;2023-04-23T08:57:46;18.40;99.90
60701;DHT22;46541;49.894;10.886;2023-04-23T09:00:15;18.50;99.90
60701;DHT22;46541;49.894;10.886;2023-04-23T09:02:44;18.90;99.90
60701;DHT22;46541;49.894;10.886;2023-04-23T09:05:12;19.00;99.90
60701;DHT22;46541;49.894;10.886;2023-04-23T09:07:39;19.10;99.60
60701;DHT22;46541;49.894;10.886;2023-04-23T09:10:08;19.40;99.10
60701;DHT22;46541;49.894;10.886;2023-04-23T09:12:38;20.00;98.40
60701;DHT22;46541;49.894;10.886;2023-04-23T09:15:07;20.20;97.70
60701;DHT22;46541;49.894;10.886;2023-04-23T09:17:38;20.30;95.70
60701;DHT22;46541;49.894;10.886;2023-04-23T09:20:11;20.70;95.10
60701;DHT22;46541;49.894;10.886;2023-04-23T09:22:45;21.00;94.80
60701;DHT22;46541;49.894;10.886;2023-04-23T09:25:17;20.80;94.50
60701;DHT22;46541;49.894;10.886;2023-04-23T09:27:46;20.40;94.30
60701;DHT22;46541;49.894;10.886;2023-04-23T09:30:13;19.60;95.00
60701;DHT22;46541;49.894;10.886;2023-04-23T09:32:42;19.40;96.30
60701;DHT22;46541;49.894;10.886;2023-04-23T09:35:13;19.40;96.00
60701;DHT22;46541;49.894;10.886;2023-04-23T09:37:41;19.50;96.40
60701;DHT22;46541;49.894;10.886;2023-04-23T09:40:09;19.60;96.10
60701;DHT22;46541;49.894;10.886;2023-04-23T09:42:38;19.70;95.10
60701;DHT22;46541;49.894;10.886;2023-04-23T09:45:07;20.10;94.20
60701;DHT22;46541;49.894;10.886;2023-04-23T09:47:37;20.00;93.60
60701;DHT22;46541;49.894;10.886;2023-04-23T09:50:05;20.30;93.70
60701;DHT22;46541;49.894;10.886;2023-04-23T09:52:37;20.20;93.70
60701;DHT22;46541;49.894;10.886;2023-04-23T09:55:05;20.00;94.00
60701;DHT22;46541;49.894;10.886;2023-04-23T09:57:42;19.80;94.20
60701;DHT22;46541;49.894;10.886;2023-04-23T10:00:18;19.80;94.00
60701;DHT22;46541;49.894;10.886;2023-04-23T10:02:49;19.50;93.20
60701;DHT22;46541;49.894;10.886;2023-04-23T10:05:21;19.10;93.60
60701;DHT22;46541;49.894;10.886;2023-04-23T10:07:57;18.90;94.50
60701;DHT22;46541;49.894;10.886;2023-04-23T10:10:24;18.90;94.30
60701;DHT22;46541;49.894;10.886;2023-04-23T10:12:52;18.70;94.60
60701;DHT22;46541;49.894;10.886;2023-04-23T10:15:22;18.70;94.60
60701;DHT22;46541;49.894;10.886;2023-04-23T10:17:51;18.80;94.70
60701;DHT22;46541;49.894;10.886;2023-04-23T10:20:20;19.00;94.20
60701;DHT22;46541;49.894;10.886;2023-04-23T10:22:48;19.10;93.90
60701;DHT22;46541;49.894;10.886;2023-04-23T10:25:15;19.30;93.60
60701;DHT22;46541;49.894;10.886;2023-04-23T10:27:43;19.20;94.10
60701;DHT22;46541;49.894;10.886;2023-04-23T10:30:20;19.30;94.20
60701;DHT22;46541;49.894;10.886;2023-04-23T10:32:48;19.40;92.60
60701;DHT22;46541;49.894;10.886;2023-04-23T10:35:15;19.30;93.60
60701;DHT22;46541;49.894;10.886;2023-04-23T10:37:43;19.60;92.40
60701;DHT22;46541;49.894;10.886;2023-04-23T10:40:13;20.10;91.80
60701;DHT22;46541;49.894;10.886;2023-04-23T10:42:42;20.30;91.30
60701;DHT22;46541;49.894;10.886;2023-04-23T10:45:16;20.90;91.60
60701;DHT22;46541;49.894;10.886;2023-04-23T10:47:46;21.40;90.30
60701;DHT22;46541;49.894;10.886;2023-04-23T10:50:25;21.30;87.20
60701;DHT22;46541;49.894;10.886;2023-04-23T10:52:52;21.50;84.60
60701;DHT22;46541;49.894;10.886;2023-04-23T10:55:28;21.60;83.10
60701;DHT22;46541;49.894;10.886;2023-04-23T10:58:02;21.70;81.90
60701;DHT22;46541;49.894;10.886;2023-04-23T11:00:49;21.50;81.80
60701;DHT22;46541;49.894;10.886;2023-04-23T11:06:00;22.00;77.30
60701;DHT22;46541;49.894;10.886;2023-04-23T11:08:29;22.30;76.40
60701;DHT22;46541;49.894;10.886;2023-04-23T11:11:00;22.40;77.40
60701;DHT22;46541;49.894;10.886;2023-04-23T11:13:28;22.60;76.30
60701;DHT22;46541;49.894;10.886;2023-04-23T11:16:20;22.60;75.00
60701;DHT22;46541;49.894;10.886;2023-04-23T11:19:08;22.60;75.70
60701;DHT22;46541;49.894;10.886;2023-04-23T11:24:27;23.40;74.10
60701;DHT22;46541;49.894;10.886;2023-04-23T11:26:55;23.30;72.00
60701;DHT22;46541;49.894;10.886;2023-04-23T11:29:23;23.00;71.20
60701;DHT22;46541;49.894;10.886;2023-04-23T11:31:51;22.80;72.20
60701;DHT22;46541;49.894;10.886;2023-04-23T11:34:28;22.60;71.20
60701;DHT22;46541;49.894;10.886;2023-04-23T11:36:57;22.50;72.80
60701;DHT22;46541;49.894;10.886;2023-04-23T11:39:24;22.40;71.70
60701;DHT22;46541;49.894;10.886;2023-04-23T11:41:52;22.30;72.70
60701;DHT22;46541;49.894;10.886;2023-04-23T11:44:20;22.30;73.20
60701;DHT22;46541;49.894;10.886;2023-04-23T11:46:48;22.20;73.50
60701;DHT22;46541;49.894;10.886;2023-04-23T11:49:19;22.30;74.50
60701;DHT22;46541;49.894;10.886;2023-04-23T11:51:47;22.20;72.80
60701;DHT22;46541;49.894;10.886;2023-04-23T11:54:14;22.10;72.50
60701;DHT22;46541;49.894;10.886;2023-04-23T11:56:41;21.10;74.80
60701;DHT22;46541;49.894;10.886;2023-04-23T11:59:09;21.00;76.40
60701;DHT22;46541;49.894;10.886;2023-04-23T12:01:43;21.00;75.40
60701;DHT22;46541;49.894;10.886;2023-04-23T12:04:15;20.90;76.80
60701;DHT22;46541;49.894;10.886;2023-04-23T12:06:44;20.80;76.30
60701;DHT22;46541;49.894;10.886;2023-04-23T12:09:12;20.60;77.60
60701;DHT22;46541;49.894;10.886;2023-04-23T12:11:40;20.50;78.40
60701;DHT22;46541;49.894;10.886;2023-04-23T12:14:09;20.50;78.10
60701;DHT22;46541;49.894;10.886;2023-04-23T12:16:40;20.40;77.80
60701;DHT22;46541;49.894;10.886;2023-04-23T12:19:28;20.50;77.80
60701;DHT22;46541;49.894;10.886;2023-04-23T12:21:57;20.90;76.50
60701;DHT22;46541;49.894;10.886;2023-04-23T12:24:47;21.30;74.60
60701;DHT22;46541;49.894;10.886;2023-04-23T12:27:17;21.60;74.00
60701;DHT22;46541;49.894;10.886;2023-04-23T12:29:46;21.80;74.60
60701;DHT22;46541;49.894;10.886;2023-04-23T12:32:16;21.70;74.80
60701;DHT22;46541;49.894;10.886;2023-04-23T12:34:53;21.50;75.50
60701;DHT22;46541;49.894;10.886;2023-04-23T12:37:24;21.60;75.50
60701;DHT22;46541;49.894;10.886;2023-04-23T12:39:52;21.40;76.40
60701;DHT22;46541;49.894;10.886;2023-04-23T12:42:21;21.50;77.90
60701;DHT22;46541;49.894;10.886;2023-04-23T12:44:48;21.20;78.40
60701;DHT22;46541;49.894;10.886;2023-04-23T12:47:17;21.10;79.40
60701;DHT22;46541;49.894;10.886;2023-04-23T12:49:48;21.00;79.30
60701;DHT22;46541;49.894;10.886;2023-04-23T12:52:18;21.20;77.70
60701;DHT22;46541;49.894;10.886;2023-04-23T12:54:45;21.30;77.40
60701;DHT22;46541;49.894;10.886;2023-04-23T12:57:12;21.20;78.00
60701;DHT22;46541;49.894;10.886;2023-04-23T12:59:47;21.30;77.80
60701;DHT22;46541;49.894;10.886;2023-04-23T13:02:13;21.30;77.00
60701;DHT22;46541;49.894;10.886;2023-04-23T13:04:40;21.20;77.60
60701;DHT22;46541;49.894;10.886;2023-04-23T13:07:07;21.00;79.60
60701;DHT22;46541;49.894;10.886;2023-04-23T13:09:35;21.20;79.60
60701;DHT22;46541;49.894;10.886;2023-04-23T13:12:01;21.30;79.30
60701;DHT22;46541;49.894;10.886;2023-04-23T13:14:28;21.20;78.60
60701;DHT22;46541;49.894;10.886;2023-04-23T13:16:57;21.20;78.40
60701;DHT22;46541;49.894;10.886;2023-04-23T13:19:24;21.00;77.50
60701;DHT22;46541;49.894;10.886;2023-04-23T13:21:51;20.90;78.10
60701;DHT22;46541;49.894;10.886;2023-04-23T13:24:17;20.80;78.10
60701;DHT22;46541;49.894;10.886;2023-04-23T13:26:44;20.90;77.70
60701;DHT22;46541;49.894;10.886;2023-04-23T13:29:11;20.70;78.60
60701;DHT22;46541;49.894;10.886;2023-04-23T13:31:37;20.40;78.90
60701;DHT22;46541;49.894;10.886;2023-04-23T13:34:04;20.30;79.50
60701;DHT22;46541;49.894;10.886;2023-04-23T13:36:31;20.20;80.20
60701;DHT22;46541;49.894;10.886;2023-04-23T13:38:57;20.20;79.60
60701;DHT22;46541;49.894;10.886;2023-04-23T13:41:24;20.20;78.70
60701;DHT22;46541;49.894;10.886;2023-04-23T13:43:51;20.40;78.30
60701;DHT22;46541;49.894;10.886;2023-04-23T13:46:18;20.50;77.00
60701;DHT22;46541;49.894;10.886;2023-04-23T13:48:45;20.50;77.70
60701;DHT22;46541;49.894;10.886;2023-04-23T13:51:12;20.60;78.50
60701;DHT22;46541;49.894;10.886;2023-04-23T13:53:58;20.70;77.20
60701;DHT22;46541;49.894;10.886;2023-04-23T13:56:26;20.60;77.00
60701;DHT22;46541;49.894;10.886;2023-04-23T13:58:53;20.50;77.00
60701;DHT22;46541;49.894;10.886;2023-04-23T14:01:30;20.50;77.20
60701;DHT22;46541;49.894;10.886;2023-04-23T14:03:57;20.40;77.10
60701;DHT22;46541;49.894;10.886;2023-04-23T14:06:24;20.40;78.50
60701;DHT22;46541;49.894;10.886;2023-04-23T14:08:51;20.60;77.30
60701;DHT22;46541;49.894;10.886;2023-04-23T14:11:17;20.70;77.10
60701;DHT22;46541;49.894;10.886;2023-04-23T14:13:44;20.70;76.20
60701;DHT22;46541;49.894;10.886;2023-04-23T14:16:11;20.70;76.10
60701;DHT22;46541;49.894;10.886;2023-04-23T14:18:38;20.60;75.70
60701;DHT22;46541;49.894;10.886;2023-04-23T14:21:05;20.70;75.40
60701;DHT22;46541;49.894;10.886;2023-04-23T14:23:42;20.80;75.90
60701;DHT22;46541;49.894;10.886;2023-04-23T14:26:20;20.80;76.60
60701;DHT22;46541;49.894;10.886;2023-04-23T14:28:50;20.70;73.70
60701;DHT22;46541;49.894;10.886;2023-04-23T14:31:17;20.60;74.10
60701;DHT22;46541;49.894;10.886;2023-04-23T14:33:43;20.60;74.50
60701;DHT22;46541;49.894;10.886;2023-04-23T14:36:10;20.50;73.90
60701;DHT22;46541;49.894;10.886;2023-04-23T14:38:37;20.40;74.10
60701;DHT22;46541;49.894;10.886;2023-04-23T14:41:03;20.30;75.00
60701;DHT22;46541;49.894;10.886;2023-04-23T14:43:30;20.20;75.60
60701;DHT22;46541;49.894;10.886;2023-04-23T14:45:59;20.10;76.90
60701;DHT22;46541;49.894;10.886;2023-04-23T14:48:27;20.10;77.70
60701;DHT22;46541;49.894;10.886;2023-04-23T14:50:53;20.00;77.30
60701;DHT22;46541;49.894;10.886;2023-04-23T14:53:20;19.90;77.40
60701;DHT22;46541;49.894;10.886;2023-04-23T14:55:47;19.80;77.90
60701;DHT22;46541;49.894;10.886;2023-04-23T14:58:13;19.70;78.30
60701;DHT22;46541;49.894;10.886;2023-04-23T15:00:42;19.60;78.10
60701;DHT22;46541;49.894;10.886;2023-04-23T15:03:10;19.70;77.80
60701;DHT22;46541;49.894;10.886;2023-04-23T15:05:37;19.70;78.30
60701;DHT22;46541;49.894;10.886;2023-04-23T15:08:05;19.70;78.80
60701;DHT22;46541;49.894;10.886;2023-04-23T15:10:32;19.70;78.90
60701;DHT22;46541;49.894;10.886;2023-04-23T15:15:48;19.70;78.30
60701;DHT22;46541;49.894;10.886;2023-04-23T15:18:15;19.70;76.10
60701;DHT22;46541;49.894;10.886;2023-04-23T15:20:43;19.80;76.50
60701;DHT22;46541;49.894;10.886;2023-04-23T15:23:09;19.80;77.90
60701;DHT22;46541;49.894;10.886;2023-04-23T15:25:36;19.70;76.80
60701;DHT22;46541;49.894;10.886;2023-04-23T15:28:05;19.60;77.50
60701;DHT22;46541;49.894;10.886;2023-04-23T15:30:32;19.50;76.90